Medford, Oregon
Current Conditions -  °F | °C
As of 12:15 PM on Thursday 23 Oct 2014 (Local Time) from KMFR Reporting Station
Haze Haze  
Wind Chill: 58°   Ceiling: 400
Heat Index: 58°   Visibility: 4mi
Dew Point: 56°   Wind: 3mph
Humidity: 93%   Direction: 40°NE
Pressure: 29.97"   Gusts: NA
Location:  42.32°N, 122.88°W
Report Text: KMFR 231915Z 04003KT 4SM BR BKN004 BKN024 OVC029 14/13 A2997 RMK AO2 RAE10 P0002 T01440133
Loading
Personal Weather Stations






























Interactive Weather Map
Tropical Storm Tracking
New forecast layout! Learn more

10-Day Weather Forecast

Advertisements
Track Severe Weather on mobile